Time;durP1;ratioP1;P1;durP2;ratioP2;P2;SDS_P1;SDS_P2;PMS_P1;PMS_P2;Temp;Humidity;BMP_temperature;BMP_pressure;BME280_temperature;BME280_humidity;BME280_pressure;Samples;Min_cycle;Max_cycle;Signal;HPM_P1;HPM_P2
2023/05/01 00:00:33;;;;;;;9.75;5.72;;;11.30;99.80;;;;;;5085138;28;20393;-71
2023/05/01 00:02:58;;;;;;;8.40;5.35;;;11.30;99.90;;;;;;5086049;28;20194;-71
2023/05/01 00:05:24;;;;;;;7.63;5.45;;;11.20;99.90;;;;;;5088427;28;20075;-71
2023/05/01 00:07:50;;;;;;;8.77;5.45;;;11.20;99.90;;;;;;5088430;28;20610;-71
2023/05/01 00:10:16;;;;;;;10.13;5.88;;;11.10;99.90;;;;;;5087521;28;20047;-72
2023/05/01 00:12:41;;;;;;;9.98;5.70;;;11.10;99.90;;;;;;5086983;28;20040;-72
2023/05/01 00:15:08;;;;;;;10.10;6.30;;;11.10;99.90;;;;;;5073526;28;20686;-72
2023/05/01 00:17:33;;;;;;;12.98;7.60;;;11.00;99.90;;;;;;5082645;28;20514;-72
2023/05/01 00:19:59;;;;;;;10.35;6.00;;;11.00;99.90;;;;;;5089026;28;20059;-72
2023/05/01 00:22:25;;;;;;;10.32;6.20;;;11.00;99.90;;;;;;5088431;28;20055;-72
2023/05/01 00:24:51;;;;;;;9.48;6.03;;;10.90;99.90;;;;;;5086796;28;20043;-71
2023/05/01 00:27:16;;;;;;;9.65;5.88;;;10.90;99.90;;;;;;5086107;28;20039;-71
2023/05/01 00:29:42;;;;;;;9.05;5.57;;;10.80;99.90;;;;;;5083632;28;20043;-71
2023/05/01 00:32:08;;;;;;;8.68;6.25;;;10.80;99.90;;;;;;5083645;28;20198;-71
2023/05/01 00:34:34;;;;;;;9.10;5.57;;;10.80;99.90;;;;;;5081797;28;20115;-71
2023/05/01 00:36:59;;;;;;;9.27;5.38;;;10.80;99.90;;;;;;5086434;28;20801;-72
2023/05/01 00:39:25;;;;;;;10.38;5.75;;;10.70;99.90;;;;;;5086427;28;20070;-71
2023/05/01 00:41:51;;;;;;;9.05;5.43;;;10.70;99.90;;;;;;5085251;28;20039;-71
2023/05/01 00:44:16;;;;;;;8.23;5.55;;;10.70;99.90;;;;;;5084042;28;20104;-71
2023/05/01 00:46:42;;;;;;;9.07;5.88;;;10.60;99.90;;;;;;5085102;28;20287;-71
2023/05/01 00:49:08;;;;;;;9.93;5.95;;;10.60;99.90;;;;;;5083494;28;20186;-71
2023/05/01 00:51:35;;;;;;;8.50;5.75;;;10.60;99.90;;;;;;5083272;28;20047;-71
2023/05/01 00:54:01;;;;;;;10.02;5.80;;;10.50;99.90;;;;;;5083773;28;20438;-71
2023/05/01 00:56:31;;;;;;;8.13;5.57;;;10.50;99.90;;;;;;5085838;28;20487;-71
2023/05/01 00:58:58;;;;;;;8.98;5.55;;;10.50;99.90;;;;;;5085434;28;20472;-72
2023/05/01 01:01:23;;;;;;;9.55;6.05;;;10.40;99.90;;;;;;5086859;28;20103;-71
2023/05/01 01:03:53;;;;;;;8.90;6.00;;;10.40;99.90;;;;;;5084539;28;20193;-71
2023/05/01 01:06:45;;;;;;;9.68;5.88;;;10.40;99.90;;;;;;5085568;28;20044;-71
2023/05/01 01:09:31;;;;;;;10.02;6.40;;;10.30;99.90;;;;;;5088601;28;20635;-72
2023/05/01 01:12:12;;;;;;;12.55;7.03;;;10.30;99.90;;;;;;5087376;28;20047;-71
2023/05/01 01:14:54;;;;;;;11.90;6.55;;;10.30;99.90;;;;;;5088763;28;20058;-71
2023/05/01 01:17:41;;;;;;;10.93;6.65;;;10.30;99.90;;;;;;5085363;28;20058;-71
2023/05/01 01:20:36;;;;;;;9.80;6.57;;;10.30;99.90;;;;;;5084622;28;20511;-72
2023/05/01 01:23:32;;;;;;;10.23;6.70;;;10.20;99.90;;;;;;5083690;28;20029;-71
2023/05/01 01:26:10;;;;;;;9.88;7.15;;;10.20;99.90;;;;;;5075894;28;20096;-72
2023/05/01 01:29:22;;;;;;;10.43;6.75;;;10.20;99.90;;;;;;5088363;28;20380;-72
2023/05/01 01:32:22;;;;;;;9.05;6.70;;;10.20;99.90;;;;;;5066098;28;20056;-71
2023/05/01 01:34:54;;;;;;;9.32;6.63;;;10.10;99.90;;;;;;5084882;28;20048;-71
2023/05/01 01:37:37;;;;;;;10.95;6.95;;;10.00;99.90;;;;;;5086977;28;20368;-71
2023/05/01 01:40:06;;;;;;;11.65;7.05;;;10.00;99.90;;;;;;5085021;28;20118;-71
2023/05/01 01:42:45;;;;;;;10.40;6.65;;;10.00;99.90;;;;;;5087978;28;20085;-71
2023/05/01 01:45:24;;;;;;;11.80;6.57;;;10.00;99.90;;;;;;5083834;28;20433;-71
2023/05/01 01:47:52;;;;;;;9.77;6.38;;;9.90;99.90;;;;;;5074572;28;20047;-71
2023/05/01 01:50:21;;;;;;;12.10;6.75;;;9.90;99.90;;;;;;5084520;28;20705;-71
2023/05/01 01:52:48;;;;;;;10.57;6.75;;;9.90;99.90;;;;;;5083187;28;20036;-71
2023/05/01 01:55:14;;;;;;;;;;;9.90;99.90;;;;;;5085816;28;20653;-71
2023/05/01 01:57:42;;;;;;;10.30;7.00;;;9.80;99.90;;;;;;5076772;28;20650;-72
2023/05/01 02:00:12;;;;;;;9.38;7.07;;;9.80;99.90;;;;;;5082918;28;20058;-71
2023/05/01 02:02:39;;;;;;;10.18;6.05;;;9.70;99.90;;;;;;5099603;28;20101;-72
2023/05/01 02:05:13;;;;;;;9.50;6.95;;;9.70;99.90;;;;;;5083754;28;20465;-71
2023/05/01 02:07:40;;;;;;;10.40;6.72;;;9.60;99.90;;;;;;5077877;28;20037;-71
2023/05/01 02:10:08;;;;;;;10.02;6.85;;;9.60;99.90;;;;;;5084059;28;20048;-72
2023/05/01 02:12:35;;;;;;;10.10;6.90;;;9.50;99.90;;;;;;5085497;28;20230;-71
2023/05/01 02:15:02;;;;;;;9.73;6.78;;;9.50;99.90;;;;;;5078135;28;20044;-71
2023/05/01 02:17:28;;;;;;;10.00;7.35;;;9.40;99.90;;;;;;5087521;28;20120;-71
2023/05/01 02:19:56;;;;;;;11.35;7.03;;;9.40;99.90;;;;;;5085091;28;20700;-71
2023/05/01 02:22:22;;;;;;;9.75;6.82;;;9.40;99.90;;;;;;5087643;28;20036;-71
2023/05/01 02:24:48;;;;;;;10.85;6.72;;;9.30;99.90;;;;;;5084463;28;20189;-71
2023/05/01 02:27:25;;;;;;;10.60;7.47;;;9.30;99.90;;;;;;5083559;28;20047;-71
2023/05/01 02:29:52;;;;;;;9.68;6.57;;;9.30;99.90;;;;;;5077892;28;20048;-71
2023/05/01 02:32:18;;;;;;;11.43;6.85;;;9.20;99.90;;;;;;5078440;28;20048;-71
2023/05/01 02:34:47;;;;;;;11.60;6.90;;;9.20;99.90;;;;;;5085233;28;20487;-71
2023/05/01 02:37:13;;;;;;;9.70;6.80;;;9.10;99.90;;;;;;5085643;28;20070;-71
2023/05/01 02:39:39;;;;;;;9.23;6.88;;;9.10;99.90;;;;;;5079845;28;20036;-71
2023/05/01 02:42:08;;;;;;;9.27;6.70;;;9.10;99.90;;;;;;5084102;28;20457;-71
2023/05/01 02:45:08;;;;;;;15.57;7.75;;;9.10;99.90;;;;;;5085018;28;20556;-71
2023/05/01 02:47:38;;;;;;;11.48;7.35;;;9.20;99.90;;;;;;5069323;28;20060;-71
2023/05/01 02:50:05;;;;;;;10.35;6.88;;;9.10;99.90;;;;;;5084585;28;20044;-71
2023/05/01 02:52:30;;;;;;;8.77;6.75;;;9.00;99.90;;;;;;5084945;28;20032;-71
2023/05/01 02:54:56;;;;;;;10.55;7.40;;;9.00;99.90;;;;;;5102405;28;20124;-71
2023/05/01 02:57:22;;;;;;;10.65;7.05;;;9.00;99.90;;;;;;5083743;28;20032;-71
2023/05/01 02:59:48;;;;;;;10.65;6.95;;;9.00;99.90;;;;;;5085887;28;20123;-71
2023/05/01 03:02:14;;;;;;;10.90;7.07;;;8.90;99.90;;;;;;5084857;28;20554;-71
2023/05/01 03:04:41;;;;;;;10.55;6.70;;;8.90;99.90;;;;;;5089838;28;20044;-71
2023/05/01 03:07:08;;;;;;;10.27;6.90;;;8.80;99.90;;;;;;5086718;28;20047;-71
2023/05/01 03:09:33;;;;;;;11.15;7.22;;;8.80;99.90;;;;;;5088222;28;20084;-71
2023/05/01 03:12:02;;;;;;;9.23;6.90;;;8.80;99.90;;;;;;5089546;28;20040;-71
2023/05/01 03:14:28;;;;;;;10.63;7.35;;;8.80;99.90;;;;;;5089384;28;20036;-71
2023/05/01 03:16:54;;;;;;;12.98;7.30;;;8.80;99.90;;;;;;5084046;28;20695;-71
2023/05/01 03:19:20;;;;;;;11.45;7.22;;;8.80;99.90;;;;;;5091641;28;20044;-71
2023/05/01 03:21:45;;;;;;;11.48;7.30;;;8.80;99.90;;;;;;5088173;28;20059;-71
2023/05/01 03:24:11;;;;;;;10.65;7.72;;;8.80;99.90;;;;;;5084252;28;20491;-71
2023/05/01 03:26:37;;;;;;;12.35;6.93;;;8.80;99.90;;;;;;5090389;28;20050;-71
2023/05/01 03:29:02;;;;;;;11.43;7.18;;;8.80;99.90;;;;;;5090742;28;20115;-71
2023/05/01 03:31:28;;;;;;;11.77;8.15;;;8.70;99.90;;;;;;5088651;28;20052;-71
2023/05/01 03:33:54;;;;;;;9.90;7.10;;;8.70;99.90;;;;;;5088802;28;20502;-71
2023/05/01 03:36:21;;;;;;;15.48;8.00;;;8.60;99.90;;;;;;5087922;28;20469;-71
2023/05/01 03:38:47;;;;;;;11.80;7.13;;;8.70;99.90;;;;;;5084753;28;20043;-71
2023/05/01 03:41:13;;;;;;;13.98;7.78;;;8.60;99.90;;;;;;5081846;28;20361;-71
2023/05/01 03:43:38;;;;;;;11.07;7.60;;;8.60;99.90;;;;;;5085942;28;20105;-71
2023/05/01 03:46:04;;;;;;;14.02;8.07;;;8.60;99.90;;;;;;5088918;28;20032;-72
2023/05/01 03:48:30;;;;;;;13.73;7.68;;;8.60;99.90;;;;;;5089145;28;20127;-71
2023/05/01 03:50:57;;;;;;;10.68;7.82;;;8.60;99.90;;;;;;5087379;28;20578;-71
2023/05/01 03:53:23;;;;;;;11.43;7.68;;;8.60;99.90;;;;;;5083065;28;20081;-71
2023/05/01 03:55:48;;;;;;;14.63;7.93;;;8.60;99.90;;;;;;5085029;28;20448;-71
2023/05/01 03:58:14;;;;;;;14.27;7.70;;;8.60;99.90;;;;;;5086077;28;20032;-71
2023/05/01 04:00:40;;;;;;;12.25;6.85;;;8.60;99.90;;;;;;5088191;28;20082;-71
2023/05/01 04:03:06;;;;;;;11.77;7.82;;;8.60;99.90;;;;;;5084974;28;20044;-71
2023/05/01 04:05:32;;;;;;;11.38;7.97;;;8.60;99.90;;;;;;5084728;28;20028;-71
2023/05/01 04:07:58;;;;;;;13.07;7.72;;;8.60;99.90;;;;;;5087884;28;20047;-71
2023/05/01 04:10:23;;;;;;;11.95;7.85;;;8.70;99.90;;;;;;5085296;28;20040;-71
2023/05/01 04:12:49;;;;;;;11.18;8.18;;;8.60;99.90;;;;;;5085204;28;20040;-71
2023/05/01 04:15:15;;;;;;;13.55;8.43;;;8.70;99.90;;;;;;5087638;28;20035;-71
2023/05/01 04:17:42;;;;;;;12.52;8.65;;;8.70;99.90;;;;;;5086053;28;20064;-71
2023/05/01 04:20:09;;;;;;;13.43;8.40;;;8.70;99.90;;;;;;5102227;28;20044;-71
2023/05/01 04:22:35;;;;;;;10.77;7.65;;;8.70;99.90;;;;;;5083641;28;20048;-71
2023/05/01 04:25:02;;;;;;;13.40;8.40;;;8.70;99.90;;;;;;5083786;28;20039;-71
2023/05/01 04:27:28;;;;;;;12.48;8.30;;;8.80;99.90;;;;;;5085963;28;20055;-71
2023/05/01 04:29:54;;;;;;;11.57;8.13;;;8.80;99.90;;;;;;5085594;28;20067;-71
2023/05/01 04:32:19;;;;;;;14.48;8.30;;;8.80;99.90;;;;;;5086179;28;20807;-71
2023/05/01 04:34:45;;;;;;;13.48;8.55;;;8.80;99.90;;;;;;5084639;28;20044;-71
2023/05/01 04:37:11;;;;;;;13.90;8.45;;;8.80;99.90;;;;;;5089615;28;20047;-71
2023/05/01 04:39:37;;;;;;;11.73;8.15;;;8.90;99.90;;;;;;5082500;28;20105;-71
2023/05/01 04:42:03;;;;;;;12.68;8.13;;;8.90;99.90;;;;;;5085481;28;20036;-71
2023/05/01 04:44:29;;;;;;;13.05;8.60;;;9.00;99.90;;;;;;5084878;28;20066;-71
2023/05/01 04:46:55;;;;;;;11.35;8.18;;;9.00;99.90;;;;;;5087583;28;20044;-71
2023/05/01 04:49:21;;;;;;;12.43;8.77;;;9.00;99.90;;;;;;5084160;28;20051;-71
2023/05/01 04:51:47;;;;;;;10.38;8.23;;;9.00;99.90;;;;;;5087248;28;20059;-70
2023/05/01 04:54:12;;;;;;;12.75;8.57;;;9.10;99.90;;;;;;5085392;28;20024;-71
2023/05/01 04:56:38;;;;;;;14.55;8.55;;;9.10;99.90;;;;;;5080801;28;20044;-71
2023/05/01 04:59:04;;;;;;;13.02;8.23;;;9.10;99.90;;;;;;5084854;28;20040;-71
2023/05/01 05:01:29;;;;;;;13.70;8.60;;;9.10;99.90;;;;;;5076763;28;20040;-71
2023/05/01 05:03:55;;;;;;;11.90;8.10;;;9.10;99.90;;;;;;5083621;28;20039;-70
2023/05/01 05:06:21;;;;;;;13.30;8.90;;;9.10;99.90;;;;;;5086670;28;20043;-71
2023/05/01 05:08:50;;;;;;;14.30;9.18;;;9.20;99.90;;;;;;5086681;28;20043;-71
2023/05/01 05:11:17;;;;;;;13.68;9.13;;;9.20;99.90;;;;;;5088874;28;20491;-71
2023/05/01 05:13:42;;;;;;;17.75;8.93;;;9.30;99.90;;;;;;5085475;28;20044;-71
2023/05/01 05:16:08;;;;;;;13.50;8.90;;;9.30;99.90;;;;;;5086745;28;20490;-71
2023/05/01 05:18:33;;;;;;;13.90;8.98;;;9.30;99.90;;;;;;5087726;28;20101;-71
2023/05/01 05:21:03;;;;;;;12.00;8.65;;;9.30;99.90;;;;;;5078323;28;20502;-71
2023/05/01 05:23:28;;;;;;;13.15;9.38;;;9.40;99.90;;;;;;5084030;28;20498;-71
2023/05/01 05:25:54;;;;;;;10.32;8.18;;;9.50;99.90;;;;;;5087760;28;20042;-71
2023/05/01 05:28:20;;;;;;;14.50;8.45;;;9.60;99.90;;;;;;5084871;28;20044;-71
2023/05/01 05:30:45;;;;;;;12.95;8.68;;;9.60;99.90;;;;;;5080389;28;20072;-71
2023/05/01 05:33:12;;;;;;;12.15;8.52;;;9.60;99.90;;;;;;5085503;28;20071;-71
2023/05/01 05:35:37;;;;;;;13.23;9.20;;;9.60;99.90;;;;;;5083962;28;20115;-70
2023/05/01 05:38:03;;;;;;;12.98;8.60;;;9.70;99.90;;;;;;5086553;28;20436;-69
2023/05/01 05:40:29;;;;;;;12.98;8.63;;;9.80;99.90;;;;;;5081186;28;20797;-69
2023/05/01 05:42:55;;;;;;;13.65;9.20;;;9.80;99.90;;;;;;5083524;28;20036;-68
2023/05/01 05:45:22;;;;;;;13.18;8.55;;;9.80;99.90;;;;;;5077970;28;20039;-69
2023/05/01 05:47:48;;;;;;;12.95;9.32;;;9.90;99.90;;;;;;5078306;28;20085;-69
2023/05/01 05:50:13;;;;;;;13.05;9.30;;;9.90;99.90;;;;;;5084707;28;20032;-69
2023/05/01 05:52:39;;;;;;;13.13;9.13;;;9.90;99.90;;;;;;5084415;28;20127;-69
2023/05/01 05:55:05;;;;;;;13.77;8.82;;;10.00;99.90;;;;;;5087693;28;20046;-69
2023/05/01 05:57:31;;;;;;;15.13;9.57;;;10.10;99.90;;;;;;5082883;28;20032;-69
2023/05/01 05:59:57;;;;;;;14.38;9.45;;;10.20;99.90;;;;;;5085079;28;20105;-69
2023/05/01 06:02:22;;;;;;;11.77;8.82;;;10.30;99.90;;;;;;5077611;28;20448;-69
2023/05/01 06:04:48;;;;;;;16.00;9.20;;;10.40;99.90;;;;;;5079626;28;20125;-69
2023/05/01 06:07:14;;;;;;;15.82;10.00;;;10.40;99.90;;;;;;5084668;28;20482;-69
2023/05/01 06:09:40;;;;;;;14.50;9.55;;;10.40;99.90;;;;;;5085080;28;20050;-68
2023/05/01 06:12:06;;;;;;;14.00;8.80;;;10.40;99.90;;;;;;5086795;28;20070;-69
2023/05/01 06:14:32;;;;;;;13.65;9.10;;;10.50;99.90;;;;;;5079689;28;20411;-69
2023/05/01 06:17:00;;;;;;;13.50;8.70;;;10.60;99.90;;;;;;5084129;28;20067;-69
2023/05/01 06:19:26;;;;;;;14.27;8.55;;;10.80;99.90;;;;;;5082182;28;20052;-70
2023/05/01 06:21:52;;;;;;;11.38;7.63;;;10.80;99.90;;;;;;5088679;28;20398;-69
2023/05/01 06:24:18;;;;;;;11.85;7.40;;;10.80;99.90;;;;;;5082890;28;20039;-69
2023/05/01 06:26:43;;;;;;;10.45;7.20;;;10.90;99.90;;;;;;5086899;28;20051;-70
2023/05/01 06:29:09;;;;;;;13.32;7.97;;;10.90;99.90;;;;;;5084437;28;20044;-69
2023/05/01 06:31:35;;;;;;;12.30;8.07;;;10.90;99.90;;;;;;5085459;28;20055;-70
2023/05/01 06:34:00;;;;;;;11.07;7.50;;;11.00;99.90;;;;;;5086048;28;20097;-69
2023/05/01 06:36:26;;;;;;;12.15;7.82;;;11.10;99.90;;;;;;5083842;28;20051;-69
2023/05/01 06:38:52;;;;;;;10.57;7.57;;;11.20;99.90;;;;;;5085296;28;20538;-69
2023/05/01 06:41:18;;;;;;;11.20;7.80;;;11.20;99.90;;;;;;5088978;28;20441;-69
2023/05/01 06:43:43;;;;;;;13.38;8.27;;;11.20;99.90;;;;;;5085081;28;20044;-70
2023/05/01 06:46:09;;;;;;;14.25;8.25;;;11.20;99.90;;;;;;5083526;28;20044;-68
2023/05/01 06:48:35;;;;;;;14.75;8.30;;;11.20;99.90;;;;;;5081409;28;20102;-68
2023/05/01 06:51:00;;;;;;;11.95;7.65;;;11.30;99.90;;;;;;5084187;28;20546;-69
2023/05/01 06:53:28;;;;;;;13.68;7.50;;;11.40;99.90;;;;;;5084408;28;20135;-68
2023/05/01 06:55:54;;;;;;;10.00;7.63;;;11.40;99.90;;;;;;5080871;28;20070;-69
2023/05/01 06:58:20;;;;;;;11.75;8.18;;;11.40;99.90;;;;;;5080949;28;20064;-69
2023/05/01 07:00:45;;;;;;;12.80;8.50;;;11.50;99.90;;;;;;5082160;28;20067;-69
2023/05/01 07:03:11;;;;;;;11.50;7.90;;;11.60;99.90;;;;;;5085553;28;20066;-69
2023/05/01 07:05:39;;;;;;;11.00;7.22;;;11.60;99.90;;;;;;5082225;28;20418;-69
2023/05/01 07:08:05;;;;;;;11.05;8.05;;;11.70;99.90;;;;;;5085780;28;20491;-69
2023/05/01 07:10:31;;;;;;;12.73;8.07;;;11.70;99.90;;;;;;5087663;28;20122;-69
2023/05/01 07:12:58;;;;;;;11.45;7.88;;;11.70;99.90;;;;;;5086767;28;20155;-70
2023/05/01 07:15:23;;;;;;;12.43;7.77;;;11.80;99.90;;;;;;5076741;28;20047;-68
2023/05/01 07:17:49;;;;;;;10.95;7.70;;;11.80;99.90;;;;;;5085450;28;20040;-71
2023/05/01 07:20:15;;;;;;;13.63;8.00;;;11.90;99.90;;;;;;5084939;28;20060;-71
2023/05/01 07:22:42;;;;;;;11.23;7.22;;;11.90;99.90;;;;;;5079095;28;20446;-75
2023/05/01 07:25:08;;;;;;;12.48;7.47;;;12.00;99.90;;;;;;5084724;28;20078;-72
2023/05/01 07:27:33;;;;;;;13.55;7.97;;;12.10;99.90;;;;;;5086690;28;20555;-73
2023/05/01 07:30:00;;;;;;;12.75;7.22;;;12.20;99.90;;;;;;5082725;28;20121;-72
2023/05/01 07:32:26;;;;;;;10.82;7.22;;;12.20;99.90;;;;;;5084239;28;20044;-72
2023/05/01 07:34:52;;;;;;;12.93;7.53;;;12.30;99.90;;;;;;5086608;28;20048;-72
2023/05/01 07:37:17;;;;;;;11.13;7.35;;;12.40;99.90;;;;;;5076465;28;20036;-73
2023/05/01 07:39:43;;;;;;;10.20;7.38;;;12.50;99.90;;;;;;5086959;28;20127;-73
2023/05/01 07:42:09;;;;;;;12.93;7.50;;;12.60;99.90;;;;;;5084838;28;20032;-73
2023/05/01 07:44:35;;;;;;;12.55;8.15;;;12.60;99.90;;;;;;5082598;28;20114;-71
2023/05/01 07:47:05;;;;;;;11.02;7.85;;;12.60;99.90;;;;;;5079456;28;20117;-72
2023/05/01 07:49:37;;;;;;;12.00;7.72;;;12.70;99.90;;;;;;5087945;28;20055;-70
2023/05/01 07:52:05;;;;;;;11.02;7.65;;;12.80;99.90;;;;;;5084391;28;20119;-70
2023/05/01 07:54:31;;;;;;;11.65;8.07;;;12.80;99.90;;;;;;5087161;28;20036;-70
2023/05/01 07:56:57;;;;;;;11.65;7.55;;;12.90;99.90;;;;;;5090384;28;20112;-71
2023/05/01 07:59:22;;;;;;;13.75;7.93;;;13.00;99.90;;;;;;5087533;28;20123;-70
2023/05/01 08:01:48;;;;;;;13.02;7.78;;;13.00;99.90;;;;;;5087466;28;20043;-69
2023/05/01 08:04:14;;;;;;;10.05;7.25;;;13.10;99.90;;;;;;5078001;28;20047;-69
2023/05/01 08:06:39;;;;;;;11.60;8.25;;;13.20;99.90;;;;;;5086861;28;20040;-70
2023/05/01 08:09:05;;;;;;;10.77;8.07;;;13.20;99.90;;;;;;5090108;28;20555;-70
2023/05/01 08:11:32;;;;;;;15.05;9.70;;;13.30;99.90;;;;;;5079853;28;20047;-71
2023/05/01 08:13:58;;;;;;;15.90;10.00;;;13.30;99.90;;;;;;5082668;28;20115;-70
2023/05/01 08:16:23;;;;;;;15.10;10.25;;;13.30;99.90;;;;;;5088251;28;20469;-70
2023/05/01 08:18:49;;;;;;;16.27;10.20;;;13.40;99.90;;;;;;5087687;28;20525;-69
2023/05/01 08:21:15;;;;;;;16.50;8.80;;;13.40;99.90;;;;;;5085625;28;20395;-71
2023/05/01 08:23:40;;;;;;;15.40;9.35;;;13.50;99.70;;;;;;5077804;28;20049;-71
2023/05/01 08:26:06;;;;;;;11.68;8.60;;;13.50;99.20;;;;;;5080814;28;20471;-69
2023/05/01 08:28:37;;;;;;;14.48;9.73;;;13.50;99.10;;;;;;5081828;28;20490;-69
2023/05/01 08:31:03;;;;;;;14.40;10.32;;;13.50;98.80;;;;;;5087192;28;20497;-69
2023/05/01 08:33:29;;;;;;;15.00;10.65;;;13.60;98.90;;;;;;5078342;28;20068;-73
2023/05/01 08:35:54;;;;;;;14.75;9.18;;;13.60;99.00;;;;;;5087254;28;20094;-69
2023/05/01 08:38:20;;;;;;;12.65;9.95;;;13.70;99.40;;;;;;5089732;28;20127;-70
2023/05/01 08:40:53;;;;;;;14.85;10.02;;;13.70;99.50;;;;;;5082179;28;20059;-67
2023/05/01 08:43:19;;;;;;;14.50;8.93;;;13.80;99.00;;;;;;5081605;28;20399;-69
2023/05/01 08:45:47;;;;;;;13.13;8.97;;;13.80;99.30;;;;;;5082766;28;20047;-72
2023/05/01 08:48:16;;;;;;;12.80;8.55;;;13.90;99.30;;;;;;5082627;28;20298;-70
2023/05/01 08:50:44;;;;;;;12.73;8.55;;;14.00;99.60;;;;;;5087137;28;20072;-70
2023/05/01 08:53:12;;;;;;;10.73;7.72;;;14.20;99.50;;;;;;5085722;28;20097;-70
2023/05/01 08:55:39;;;;;;;13.20;8.30;;;14.30;99.40;;;;;;5087271;28;20044;-70
2023/05/01 08:58:06;;;;;;;12.73;8.60;;;14.40;99.10;;;;;;5087535;28;20043;-70
2023/05/01 09:00:35;;;;;;;12.35;8.75;;;14.50;98.60;;;;;;5087013;28;20631;-70
2023/05/01 09:03:03;;;;;;;19.08;10.80;;;14.60;98.10;;;;;;5083093;28;20032;-70
2023/05/01 09:05:31;;;;;;;15.82;9.98;;;14.60;97.60;;;;;;5083412;28;20678;-70
2023/05/01 09:07:57;;;;;;;12.10;8.93;;;14.70;97.70;;;;;;5096485;28;20056;-70
2023/05/01 09:10:23;;;;;;;11.82;8.10;;;14.80;97.50;;;;;;5082333;28;20064;-71
2023/05/01 09:12:55;;;;;;;11.57;8.10;;;14.80;97.80;;;;;;5087722;28;20051;-70
2023/05/01 09:15:23;;;;;;;11.63;8.50;;;14.90;97.50;;;;;;5087773;28;20064;-72
2023/05/01 09:17:49;;;;;;;12.77;8.38;;;14.90;97.50;;;;;;5079977;28;20044;-70
2023/05/01 09:20:17;;;;;;;11.77;8.40;;;15.00;97.30;;;;;;5076148;28;20535;-71
2023/05/01 09:22:43;;;;;;;18.83;10.50;;;15.00;96.80;;;;;;5083826;28;20079;-72
2023/05/01 09:25:09;;;;;;;10.02;8.20;;;15.10;96.30;;;;;;5088824;28;20668;-72
2023/05/01 09:27:38;;;;;;;11.10;7.70;;;15.10;96.40;;;;;;5087045;28;20055;-72
2023/05/01 09:30:06;;;;;;;11.32;7.10;;;15.10;96.40;;;;;;5086368;28;20068;-72
2023/05/01 09:32:32;;;;;;;11.35;7.55;;;15.20;96.60;;;;;;5081113;28;20079;-73
2023/05/01 09:35:13;;;;;;;11.88;8.07;;;15.40;96.90;;;;;;5084216;28;20420;-72
2023/05/01 09:37:40;;;;;;;11.90;7.90;;;15.50;95.60;;;;;;5078514;28;20391;-72
2023/05/01 09:40:10;;;;;;;12.80;8.02;;;15.50;94.60;;;;;;5102496;28;20047;-72
2023/05/01 09:42:50;;;;;;;12.50;8.23;;;15.60;94.50;;;;;;5083823;28;20038;-72
2023/05/01 09:45:18;;;;;;;19.08;8.82;;;15.70;94.30;;;;;;5085330;28;20044;-72
2023/05/01 09:47:45;;;;;;;11.20;7.40;;;15.70;94.00;;;;;;5084139;28;20670;-71
2023/05/01 09:50:30;;;;;;;12.48;6.47;;;15.80;94.30;;;;;;5082254;28;20048;-69
2023/05/01 09:52:55;;;;;;;9.75;6.30;;;15.90;92.70;;;;;;5082796;28;20063;-70
2023/05/01 09:55:22;;;;;;;8.73;6.18;;;15.90;92.00;;;;;;5088060;28;20471;-70
2023/05/01 09:57:48;;;;;;;12.63;5.55;;;15.90;91.80;;;;;;5086337;28;20128;-70
2023/05/01 10:00:15;;;;;;;10.27;5.45;;;15.90;90.80;;;;;;5084186;28;20670;-69
2023/05/01 10:02:43;;;;;;;8.73;5.40;;;16.00;91.00;;;;;;5079582;28;20075;-70
2023/05/01 10:05:10;;;;;;;8.82;6.00;;;16.00;90.20;;;;;;5073774;28;20039;-71
2023/05/01 10:07:36;;;;;;;13.23;7.13;;;16.00;90.00;;;;;;5085134;28;20483;-70
2023/05/01 10:10:15;;;;;;;10.70;5.90;;;16.00;90.70;;;;;;5078938;28;20040;-70
2023/05/01 10:12:41;;;;;;;9.43;5.05;;;16.20;90.50;;;;;;5083499;28;20048;-70
2023/05/01 10:15:08;;;;;;;10.07;4.82;;;16.20;88.90;;;;;;5084772;28;20051;-70
2023/05/01 10:17:34;;;;;;;9.77;5.95;;;16.20;88.60;;;;;;5083351;28;20491;-70
2023/05/01 10:20:01;;;;;;;8.13;5.43;;;16.30;89.00;;;;;;5078262;28;20044;-68
2023/05/01 10:22:43;;;;;;;11.45;5.40;;;16.40;89.00;;;;;;5082576;28;20046;-74
2023/05/01 10:25:13;;;;;;;7.82;5.18;;;16.50;88.60;;;;;;5078584;28;20109;-73
2023/05/01 10:27:43;;;;;;;8.57;5.95;;;16.60;88.10;;;;;;5082397;28;20095;-76
2023/05/01 10:30:27;;;;;;;9.82;6.22;;;16.70;86.90;;;;;;5042274;28;20053;-72
2023/05/01 10:32:52;;;;;;;10.95;6.55;;;16.70;86.30;;;;;;5043400;28;20135;-72
2023/05/01 10:35:33;;;;;;;7.93;5.78;;;16.80;86.10;;;;;;5045212;28;20410;-73
2023/05/01 10:38:01;;;;;;;7.40;4.85;;;16.90;85.10;;;;;;5041243;28;20144;-72
2023/05/01 10:40:47;;;;;;;6.63;5.15;;;16.90;83.10;;;;;;5045239;28;20419;-71
2023/05/01 10:43:25;;;;;;;8.13;4.97;;;17.00;81.40;;;;;;5051945;28;20044;-69
2023/05/01 10:45:51;;;;;;;10.77;4.53;;;17.10;81.80;;;;;;5025897;28;20056;-72
2023/05/01 10:48:39;;;;;;;8.80;4.20;;;17.20;81.10;;;;;;5040130;28;20894;-72
2023/05/01 10:51:13;;;;;;;8.88;4.38;;;17.40;82.40;;;;;;5053849;28;20054;-71
2023/05/01 10:53:40;;;;;;;9.23;5.03;;;17.50;82.90;;;;;;5049658;28;20590;-72
2023/05/01 10:56:24;;;;;;;8.40;4.53;;;17.60;81.20;;;;;;5062552;28;20098;-71
2023/05/01 10:58:52;;;;;;;6.75;4.45;;;17.60;78.00;;;;;;5046218;28;20355;-71
2023/05/01 11:01:35;;;;;;;11.45;5.40;;;17.70;77.50;;;;;;5060921;28;20040;-71
2023/05/01 11:04:03;;;;;;;9.50;4.05;;;17.70;74.60;;;;;;5084506;28;20076;-70
2023/05/01 11:06:30;;;;;;;7.70;3.60;;;17.70;75.40;;;;;;5085075;28;20115;-71
2023/05/01 11:08:56;;;;;;;6.57;3.93;;;17.80;75.70;;;;;;5081772;28;20066;-73
2023/05/01 11:11:21;;;;;;;7.55;4.18;;;17.90;74.60;;;;;;5085342;28;20321;-73
2023/05/01 11:14:10;;;;;;;4.85;3.00;;;18.00;74.50;;;;;;5085003;28;20048;-70
2023/05/01 11:16:38;;;;;;;6.78;3.75;;;18.10;73.10;;;;;;5085481;28;20114;-71
2023/05/01 11:19:33;;;;;;;6.97;3.00;;;18.10;72.20;;;;;;5082662;28;20116;-70
2023/05/01 11:22:12;;;;;;;6.15;3.20;;;18.10;72.60;;;;;;5069104;28;20048;-70
2023/05/01 11:24:38;;;;;;;5.25;3.03;;;18.30;72.30;;;;;;5075017;28;20164;-70
2023/05/01 11:27:03;;;;;;;9.43;3.85;;;18.30;71.50;;;;;;5086603;28;20063;-70
2023/05/01 11:29:32;;;;;;;7.00;3.67;;;18.40;70.50;;;;;;5087252;28;20597;-70
2023/05/01 11:31:59;;;;;;;10.55;3.80;;;18.50;71.00;;;;;;5087394;28;20055;-70
2023/05/01 11:34:25;;;;;;;7.40;3.60;;;18.50;71.70;;;;;;5079123;28;20480;-70
2023/05/01 11:36:52;;;;;;;8.35;3.50;;;18.50;71.30;;;;;;5084762;28;20040;-70
2023/05/01 11:39:18;;;;;;;14.95;3.92;;;18.60;71.50;;;;;;5082494;28;20097;-70
2023/05/01 11:41:45;;;;;;;6.53;3.23;;;18.70;71.10;;;;;;5074537;28;20115;-72
2023/05/01 11:44:12;;;;;;;6.63;2.80;;;18.80;71.20;;;;;;5083177;28;20040;-72
2023/05/01 11:46:38;;;;;;;5.10;2.67;;;18.90;71.80;;;;;;5075798;28;20131;-70
2023/05/01 11:49:04;;;;;;;7.07;3.03;;;19.00;71.10;;;;;;5082157;28;20158;-70
2023/05/01 11:51:30;;;;;;;9.38;3.25;;;19.00;69.20;;;;;;5084810;28;20110;-69
2023/05/01 11:54:02;;;;;;;5.45;2.58;;;19.00;69.20;;;;;;5086115;28;20048;-69
2023/05/01 11:56:28;;;;;;;5.05;2.30;;;19.10;69.10;;;;;;5083466;28;20044;-71
2023/05/01 11:58:56;;;;;;;7.05;2.50;;;19.20;68.70;;;;;;5084723;28;20044;-71
2023/05/01 12:01:34;;;;;;;5.95;2.80;;;19.20;68.40;;;;;;5089383;28;20067;-70
2023/05/01 12:03:59;;;;;;;6.47;2.55;;;19.40;68.00;;;;;;5087170;28;20105;-72
2023/05/01 12:06:44;;;;;;;6.28;2.72;;;19.50;66.50;;;;;;5088242;28;20071;-70
2023/05/01 12:09:17;;;;;;;7.97;2.70;;;19.50;64.80;;;;;;5076881;28;20036;-69
2023/05/01 12:11:45;;;;;;;5.20;2.45;;;19.50;65.10;;;;;;5084665;28;20623;-70
2023/05/01 12:14:11;;;;;;;;;;;19.50;64.70;;;;;;5087847;28;20040;-70
2023/05/01 12:16:39;;;;;;;4.47;2.73;;;19.40;63.70;;;;;;5089406;28;19920;-70
2023/05/01 12:19:05;;;;;;;8.57;3.33;;;19.50;65.00;;;;;;5086233;28;20298;-70
2023/05/01 12:21:31;;;;;;;6.43;3.30;;;19.50;64.50;;;;;;5089118;28;20044;-70
2023/05/01 12:24:10;;;;;;;6.32;3.20;;;19.50;64.20;;;;;;5088081;28;20059;-70
2023/05/01 12:26:36;;;;;;;6.55;3.00;;;19.40;63.00;;;;;;5082824;28;20072;-70
2023/05/01 12:29:07;;;;;;;7.43;3.20;;;19.30;64.30;;;;;;5085755;28;20074;-70
2023/05/01 12:31:45;;;;;;;6.50;3.67;;;19.30;64.90;;;;;;5085188;28;20044;-69
2023/05/01 12:34:11;;;;;;;6.80;3.38;;;19.30;63.80;;;;;;5084872;28;20173;-70
2023/05/01 12:36:37;;;;;;;5.80;3.33;;;19.40;64.90;;;;;;5083234;28;20048;-70
2023/05/01 12:39:05;;;;;;;5.53;3.50;;;19.50;64.70;;;;;;5087373;28;20044;-71
2023/05/01 12:41:36;;;;;;;4.57;3.40;;;19.50;63.80;;;;;;5086207;28;20079;-71
2023/05/01 12:44:13;;;;;;;7.57;3.38;;;19.50;63.00;;;;;;5077253;28;20066;-70
2023/05/01 12:46:40;;;;;;;7.03;3.33;;;19.60;63.50;;;;;;5080961;28;20040;-70
2023/05/01 12:49:06;;;;;;;5.88;3.40;;;19.60;63.70;;;;;;5087057;28;20051;-70